sensor_id;sensor_type;location;lat;lon;timestamp;P1;durP1;ratioP1;P2;durP2;ratioP2
70761;SDS011;58360;0.000;0.000;2023-04-24T00:01:42;40.08;;;21.92;;
70761;SDS011;58360;0.000;0.000;2023-04-24T00:04:08;40.85;;;21.83;;
70761;SDS011;58360;0.000;0.000;2023-04-24T00:06:36;44.22;;;21.10;;
70761;SDS011;58360;0.000;0.000;2023-04-24T00:09:03;41.72;;;22.30;;
70761;SDS011;58360;0.000;0.000;2023-04-24T00:11:29;50.20;;;21.27;;
70761;SDS011;58360;0.000;0.000;2023-04-24T00:13:56;36.47;;;20.65;;
70761;SDS011;58360;0.000;0.000;2023-04-24T00:16:22;36.85;;;20.83;;
70761;SDS011;58360;0.000;0.000;2023-04-24T00:18:48;41.15;;;22.17;;
70761;SDS011;58360;0.000;0.000;2023-04-24T00:21:14;39.05;;;21.23;;
70761;SDS011;58360;0.000;0.000;2023-04-24T00:23:43;42.20;;;23.05;;
70761;SDS011;58360;0.000;0.000;2023-04-24T00:26:09;37.92;;;22.35;;
70761;SDS011;58360;0.000;0.000;2023-04-24T00:28:35;41.97;;;23.70;;
70761;SDS011;58360;0.000;0.000;2023-04-24T00:31:01;45.45;;;22.70;;
70761;SDS011;58360;0.000;0.000;2023-04-24T00:33:26;35.08;;;21.73;;
70761;SDS011;58360;0.000;0.000;2023-04-24T00:35:52;38.83;;;22.08;;
70761;SDS011;58360;0.000;0.000;2023-04-24T00:38:18;39.45;;;22.13;;
70761;SDS011;58360;0.000;0.000;2023-04-24T00:40:44;35.70;;;20.73;;
70761;SDS011;58360;0.000;0.000;2023-04-24T00:43:10;33.90;;;21.17;;
70761;SDS011;58360;0.000;0.000;2023-04-24T00:45:36;36.70;;;20.88;;
70761;SDS011;58360;0.000;0.000;2023-04-24T00:48:02;36.35;;;20.95;;
70761;SDS011;58360;0.000;0.000;2023-04-24T00:50:28;33.22;;;21.35;;
70761;SDS011;58360;0.000;0.000;2023-04-24T00:52:55;34.90;;;20.00;;
70761;SDS011;58360;0.000;0.000;2023-04-24T00:55:21;37.28;;;21.38;;
70761;SDS011;58360;0.000;0.000;2023-04-24T00:57:47;32.05;;;20.75;;
70761;SDS011;58360;0.000;0.000;2023-04-24T01:00:13;37.10;;;22.25;;
70761;SDS011;58360;0.000;0.000;2023-04-24T01:02:41;33.75;;;21.83;;
70761;SDS011;58360;0.000;0.000;2023-04-24T01:05:10;33.92;;;19.85;;
70761;SDS011;58360;0.000;0.000;2023-04-24T01:07:38;33.95;;;20.45;;
70761;SDS011;58360;0.000;0.000;2023-04-24T01:10:06;34.72;;;21.83;;
70761;SDS011;58360;0.000;0.000;2023-04-24T01:12:33;31.00;;;19.92;;
70761;SDS011;58360;0.000;0.000;2023-04-24T01:14:59;33.75;;;20.67;;
70761;SDS011;58360;0.000;0.000;2023-04-24T01:17:24;37.17;;;20.92;;
70761;SDS011;58360;0.000;0.000;2023-04-24T01:19:50;33.17;;;21.33;;
70761;SDS011;58360;0.000;0.000;2023-04-24T01:22:21;34.42;;;20.42;;
70761;SDS011;58360;0.000;0.000;2023-04-24T01:24:47;36.85;;;19.02;;
70761;SDS011;58360;0.000;0.000;2023-04-24T01:27:13;30.25;;;18.73;;
70761;SDS011;58360;0.000;0.000;2023-04-24T01:29:40;30.17;;;18.85;;
70761;SDS011;58360;0.000;0.000;2023-04-24T01:32:06;31.67;;;18.02;;
70761;SDS011;58360;0.000;0.000;2023-04-24T01:34:32;25.90;;;17.40;;
70761;SDS011;58360;0.000;0.000;2023-04-24T01:36:58;28.40;;;17.60;;
70761;SDS011;58360;0.000;0.000;2023-04-24T01:39:24;39.10;;;19.98;;
70761;SDS011;58360;0.000;0.000;2023-04-24T01:41:51;37.75;;;19.15;;
70761;SDS011;58360;0.000;0.000;2023-04-24T01:44:17;39.35;;;19.55;;
70761;SDS011;58360;0.000;0.000;2023-04-24T01:46:43;41.30;;;20.75;;
70761;SDS011;58360;0.000;0.000;2023-04-24T01:49:09;35.25;;;19.88;;
70761;SDS011;58360;0.000;0.000;2023-04-24T01:51:35;32.22;;;18.45;;
70761;SDS011;58360;0.000;0.000;2023-04-24T01:54:04;34.88;;;18.80;;
70761;SDS011;58360;0.000;0.000;2023-04-24T01:56:30;29.92;;;18.17;;
70761;SDS011;58360;0.000;0.000;2023-04-24T01:59:00;34.03;;;19.02;;
70761;SDS011;58360;0.000;0.000;2023-04-24T02:01:27;31.08;;;18.02;;
70761;SDS011;58360;0.000;0.000;2023-04-24T02:03:57;27.45;;;17.95;;
70761;SDS011;58360;0.000;0.000;2023-04-24T02:06:23;26.48;;;16.65;;
70761;SDS011;58360;0.000;0.000;2023-04-24T02:08:49;31.75;;;18.63;;
70761;SDS011;58360;0.000;0.000;2023-04-24T02:11:14;30.25;;;17.13;;
70761;SDS011;58360;0.000;0.000;2023-04-24T02:13:40;34.70;;;16.80;;
70761;SDS011;58360;0.000;0.000;2023-04-24T02:16:05;27.25;;;17.17;;
70761;SDS011;58360;0.000;0.000;2023-04-24T02:18:31;28.58;;;15.70;;
70761;SDS011;58360;0.000;0.000;2023-04-24T02:20:57;28.70;;;16.38;;
70761;SDS011;58360;0.000;0.000;2023-04-24T02:23:22;26.02;;;14.93;;
70761;SDS011;58360;0.000;0.000;2023-04-24T02:25:48;22.20;;;15.88;;
70761;SDS011;58360;0.000;0.000;2023-04-24T02:28:14;27.95;;;15.85;;
70761;SDS011;58360;0.000;0.000;2023-04-24T02:30:39;22.73;;;14.48;;
70761;SDS011;58360;0.000;0.000;2023-04-24T02:33:05;21.65;;;14.65;;
70761;SDS011;58360;0.000;0.000;2023-04-24T02:35:31;21.65;;;14.00;;
70761;SDS011;58360;0.000;0.000;2023-04-24T02:37:56;20.73;;;14.15;;
70761;SDS011;58360;0.000;0.000;2023-04-24T02:40:22;18.75;;;13.20;;
70761;SDS011;58360;0.000;0.000;2023-04-24T02:42:48;17.73;;;13.07;;
70761;SDS011;58360;0.000;0.000;2023-04-24T02:45:13;18.77;;;13.43;;
70761;SDS011;58360;0.000;0.000;2023-04-24T02:47:42;18.25;;;12.32;;
70761;SDS011;58360;0.000;0.000;2023-04-24T02:50:08;18.35;;;13.00;;
70761;SDS011;58360;0.000;0.000;2023-04-24T02:52:34;19.10;;;12.73;;
70761;SDS011;58360;0.000;0.000;2023-04-24T02:55:00;19.13;;;12.50;;
70761;SDS011;58360;0.000;0.000;2023-04-24T02:57:25;18.83;;;13.32;;
70761;SDS011;58360;0.000;0.000;2023-04-24T02:59:51;20.27;;;12.85;;
70761;SDS011;58360;0.000;0.000;2023-04-24T03:02:17;20.90;;;12.45;;
70761;SDS011;58360;0.000;0.000;2023-04-24T03:04:42;17.55;;;12.05;;
70761;SDS011;58360;0.000;0.000;2023-04-24T03:07:08;19.58;;;13.07;;
70761;SDS011;58360;0.000;0.000;2023-04-24T03:09:34;21.45;;;12.82;;
70761;SDS011;58360;0.000;0.000;2023-04-24T03:11:59;27.55;;;15.35;;
70761;SDS011;58360;0.000;0.000;2023-04-24T03:14:25;26.67;;;17.17;;
70761;SDS011;58360;0.000;0.000;2023-04-24T03:16:51;29.77;;;17.25;;
70761;SDS011;58360;0.000;0.000;2023-04-24T03:19:16;31.15;;;18.42;;
70761;SDS011;58360;0.000;0.000;2023-04-24T03:21:42;38.58;;;20.45;;
70761;SDS011;58360;0.000;0.000;2023-04-24T03:24:08;37.67;;;21.13;;
70761;SDS011;58360;0.000;0.000;2023-04-24T03:26:34;43.58;;;21.70;;
70761;SDS011;58360;0.000;0.000;2023-04-24T03:29:00;41.33;;;21.40;;
70761;SDS011;58360;0.000;0.000;2023-04-24T03:31:26;35.03;;;20.73;;
70761;SDS011;58360;0.000;0.000;2023-04-24T03:33:51;40.38;;;25.95;;
70761;SDS011;58360;0.000;0.000;2023-04-24T03:36:17;47.67;;;25.40;;
70761;SDS011;58360;0.000;0.000;2023-04-24T03:38:44;50.53;;;25.95;;
70761;SDS011;58360;0.000;0.000;2023-04-24T03:41:10;53.38;;;25.38;;
70761;SDS011;58360;0.000;0.000;2023-04-24T03:43:36;43.60;;;23.35;;
70761;SDS011;58360;0.000;0.000;2023-04-24T03:46:02;42.85;;;23.27;;
70761;SDS011;58360;0.000;0.000;2023-04-24T03:48:28;49.90;;;24.40;;
70761;SDS011;58360;0.000;0.000;2023-04-24T03:50:54;48.85;;;23.67;;
70761;SDS011;58360;0.000;0.000;2023-04-24T03:53:20;44.80;;;23.80;;
70761;SDS011;58360;0.000;0.000;2023-04-24T03:55:45;41.72;;;22.35;;
70761;SDS011;58360;0.000;0.000;2023-04-24T03:58:11;30.92;;;18.95;;
70761;SDS011;58360;0.000;0.000;2023-04-24T04:00:39;27.33;;;16.67;;
70761;SDS011;58360;0.000;0.000;2023-04-24T04:03:05;29.25;;;16.83;;
70761;SDS011;58360;0.000;0.000;2023-04-24T04:05:31;33.88;;;17.05;;
70761;SDS011;58360;0.000;0.000;2023-04-24T04:07:57;31.42;;;16.17;;
70761;SDS011;58360;0.000;0.000;2023-04-24T04:10:22;24.70;;;15.18;;
70761;SDS011;58360;0.000;0.000;2023-04-24T04:12:48;25.60;;;13.07;;
70761;SDS011;58360;0.000;0.000;2023-04-24T04:15:14;22.63;;;12.48;;
70761;SDS011;58360;0.000;0.000;2023-04-24T04:17:40;23.60;;;12.23;;
70761;SDS011;58360;0.000;0.000;2023-04-24T04:20:05;25.33;;;12.65;;
70761;SDS011;58360;0.000;0.000;2023-04-24T04:22:34;23.63;;;11.98;;
70761;SDS011;58360;0.000;0.000;2023-04-24T04:25:01;17.92;;;10.18;;
70761;SDS011;58360;0.000;0.000;2023-04-24T04:27:27;21.35;;;10.57;;
70761;SDS011;58360;0.000;0.000;2023-04-24T04:29:54;15.50;;;9.07;;
70761;SDS011;58360;0.000;0.000;2023-04-24T04:32:21;16.50;;;9.27;;
70761;SDS011;58360;0.000;0.000;2023-04-24T04:34:47;17.70;;;9.20;;
70761;SDS011;58360;0.000;0.000;2023-04-24T04:37:14;16.55;;;9.60;;
70761;SDS011;58360;0.000;0.000;2023-04-24T04:39:40;21.27;;;9.15;;
70761;SDS011;58360;0.000;0.000;2023-04-24T04:42:06;20.13;;;10.25;;
70761;SDS011;58360;0.000;0.000;2023-04-24T04:44:31;15.40;;;9.68;;
70761;SDS011;58360;0.000;0.000;2023-04-24T04:46:57;19.08;;;9.32;;
70761;SDS011;58360;0.000;0.000;2023-04-24T04:49:25;19.15;;;9.90;;
70761;SDS011;58360;0.000;0.000;2023-04-24T04:51:53;19.63;;;9.40;;
70761;SDS011;58360;0.000;0.000;2023-04-24T04:54:19;18.00;;;10.23;;
70761;SDS011;58360;0.000;0.000;2023-04-24T04:56:44;19.83;;;11.55;;
70761;SDS011;58360;0.000;0.000;2023-04-24T04:59:10;29.13;;;14.38;;
70761;SDS011;58360;0.000;0.000;2023-04-24T05:01:36;26.55;;;15.05;;
70761;SDS011;58360;0.000;0.000;2023-04-24T05:04:01;31.15;;;16.65;;
70761;SDS011;58360;0.000;0.000;2023-04-24T05:06:27;38.00;;;18.80;;
70761;SDS011;58360;0.000;0.000;2023-04-24T05:08:52;38.55;;;18.63;;
70761;SDS011;58360;0.000;0.000;2023-04-24T05:11:22;36.42;;;20.15;;
70761;SDS011;58360;0.000;0.000;2023-04-24T05:13:48;39.33;;;19.83;;
70761;SDS011;58360;0.000;0.000;2023-04-24T05:16:13;43.85;;;21.90;;
70761;SDS011;58360;0.000;0.000;2023-04-24T05:18:39;41.67;;;21.23;;
70761;SDS011;58360;0.000;0.000;2023-04-24T05:21:05;42.20;;;21.23;;
70761;SDS011;58360;0.000;0.000;2023-04-24T05:23:32;34.90;;;19.23;;
70761;SDS011;58360;0.000;0.000;2023-04-24T05:25:57;39.83;;;19.20;;
70761;SDS011;58360;0.000;0.000;2023-04-24T05:28:23;41.70;;;18.55;;
70761;SDS011;58360;0.000;0.000;2023-04-24T05:30:53;36.65;;;18.52;;
70761;SDS011;58360;0.000;0.000;2023-04-24T05:33:20;40.97;;;18.42;;
70761;SDS011;58360;0.000;0.000;2023-04-24T05:35:45;32.65;;;17.02;;
70761;SDS011;58360;0.000;0.000;2023-04-24T05:38:12;29.13;;;15.10;;
70761;SDS011;58360;0.000;0.000;2023-04-24T05:40:38;29.08;;;15.02;;
70761;SDS011;58360;0.000;0.000;2023-04-24T05:43:04;21.73;;;12.38;;
70761;SDS011;58360;0.000;0.000;2023-04-24T05:45:30;22.88;;;12.05;;
70761;SDS011;58360;0.000;0.000;2023-04-24T05:47:56;23.50;;;11.50;;
70761;SDS011;58360;0.000;0.000;2023-04-24T05:50:22;20.00;;;11.50;;
70761;SDS011;58360;0.000;0.000;2023-04-24T05:52:48;24.90;;;12.18;;
70761;SDS011;58360;0.000;0.000;2023-04-24T05:55:13;20.58;;;11.00;;
70761;SDS011;58360;0.000;0.000;2023-04-24T05:57:42;26.35;;;12.45;;
70761;SDS011;58360;0.000;0.000;2023-04-24T06:00:08;26.00;;;13.02;;
70761;SDS011;58360;0.000;0.000;2023-04-24T06:02:37;23.17;;;12.93;;
70761;SDS011;58360;0.000;0.000;2023-04-24T06:05:04;24.35;;;13.68;;
70761;SDS011;58360;0.000;0.000;2023-04-24T06:07:30;29.23;;;14.90;;
70761;SDS011;58360;0.000;0.000;2023-04-24T06:09:56;30.35;;;15.00;;
70761;SDS011;58360;0.000;0.000;2023-04-24T06:12:22;28.15;;;15.13;;
70761;SDS011;58360;0.000;0.000;2023-04-24T06:14:48;32.42;;;15.32;;
70761;SDS011;58360;0.000;0.000;2023-04-24T06:17:13;41.75;;;16.90;;
70761;SDS011;58360;0.000;0.000;2023-04-24T06:19:39;54.67;;;16.42;;
70761;SDS011;58360;0.000;0.000;2023-04-24T06:22:05;76.43;;;19.90;;
70761;SDS011;58360;0.000;0.000;2023-04-24T06:24:31;30.92;;;16.65;;
70761;SDS011;58360;0.000;0.000;2023-04-24T06:26:57;26.90;;;15.65;;
70761;SDS011;58360;0.000;0.000;2023-04-24T06:29:24;34.45;;;16.52;;
70761;SDS011;58360;0.000;0.000;2023-04-24T06:31:50;30.23;;;16.92;;
70761;SDS011;58360;0.000;0.000;2023-04-24T06:34:16;36.17;;;17.30;;
70761;SDS011;58360;0.000;0.000;2023-04-24T06:36:41;35.08;;;16.95;;
70761;SDS011;58360;0.000;0.000;2023-04-24T06:39:07;34.47;;;17.10;;
70761;SDS011;58360;0.000;0.000;2023-04-24T06:41:33;26.50;;;14.90;;
70761;SDS011;58360;0.000;0.000;2023-04-24T06:43:58;38.83;;;16.55;;
70761;SDS011;58360;0.000;0.000;2023-04-24T06:46:24;41.65;;;16.40;;
70761;SDS011;58360;0.000;0.000;2023-04-24T06:48:51;27.55;;;15.98;;
70761;SDS011;58360;0.000;0.000;2023-04-24T06:51:20;37.08;;;17.27;;
70761;SDS011;58360;0.000;0.000;2023-04-24T06:53:49;37.45;;;16.55;;
70761;SDS011;58360;0.000;0.000;2023-04-24T06:56:15;39.50;;;18.13;;
70761;SDS011;58360;0.000;0.000;2023-04-24T06:58:40;35.00;;;18.85;;
70761;SDS011;58360;0.000;0.000;2023-04-24T07:01:07;40.15;;;20.02;;
70761;SDS011;58360;0.000;0.000;2023-04-24T07:03:32;51.95;;;23.73;;
70761;SDS011;58360;0.000;0.000;2023-04-24T07:05:58;46.92;;;23.58;;
70761;SDS011;58360;0.000;0.000;2023-04-24T07:08:23;47.72;;;23.25;;
70761;SDS011;58360;0.000;0.000;2023-04-24T07:10:50;40.80;;;20.98;;
70761;SDS011;58360;0.000;0.000;2023-04-24T07:13:16;47.22;;;22.52;;
70761;SDS011;58360;0.000;0.000;2023-04-24T07:15:42;30.17;;;16.13;;
70761;SDS011;58360;0.000;0.000;2023-04-24T07:18:08;39.65;;;16.92;;
70761;SDS011;58360;0.000;0.000;2023-04-24T07:20:34;32.97;;;13.75;;
70761;SDS011;58360;0.000;0.000;2023-04-24T07:23:00;27.33;;;13.15;;
70761;SDS011;58360;0.000;0.000;2023-04-24T07:25:25;33.50;;;12.18;;
70761;SDS011;58360;0.000;0.000;2023-04-24T07:27:51;34.15;;;11.88;;
70761;SDS011;58360;0.000;0.000;2023-04-24T07:30:18;19.80;;;9.57;;
70761;SDS011;58360;0.000;0.000;2023-04-24T07:32:43;22.58;;;9.70;;
70761;SDS011;58360;0.000;0.000;2023-04-24T07:35:09;24.55;;;9.50;;
70761;SDS011;58360;0.000;0.000;2023-04-24T07:37:35;20.08;;;9.10;;
70761;SDS011;58360;0.000;0.000;2023-04-24T07:40:01;24.95;;;8.80;;
70761;SDS011;58360;0.000;0.000;2023-04-24T07:42:31;14.43;;;7.63;;
70761;SDS011;58360;0.000;0.000;2023-04-24T07:45:01;21.52;;;8.43;;
70761;SDS011;58360;0.000;0.000;2023-04-24T07:47:27;20.90;;;7.63;;
70761;SDS011;58360;0.000;0.000;2023-04-24T07:50:02;21.67;;;7.47;;
70761;SDS011;58360;0.000;0.000;2023-04-24T07:52:28;18.45;;;6.03;;
70761;SDS011;58360;0.000;0.000;2023-04-24T07:54:54;17.50;;;5.70;;
70761;SDS011;58360;0.000;0.000;2023-04-24T07:57:32;16.80;;;5.80;;
70761;SDS011;58360;0.000;0.000;2023-04-24T08:00:00;16.55;;;4.72;;
70761;SDS011;58360;0.000;0.000;2023-04-24T08:02:30;14.75;;;4.70;;
70761;SDS011;58360;0.000;0.000;2023-04-24T08:04:59;16.55;;;5.40;;
70761;SDS011;58360;0.000;0.000;2023-04-24T08:07:24;16.15;;;4.63;;
70761;SDS011;58360;0.000;0.000;2023-04-24T08:09:50;14.75;;;4.43;;
70761;SDS011;58360;0.000;0.000;2023-04-24T08:12:16;17.35;;;4.65;;
70761;SDS011;58360;0.000;0.000;2023-04-24T08:14:41;17.50;;;4.75;;
70761;SDS011;58360;0.000;0.000;2023-04-24T08:17:07;17.70;;;4.00;;
70761;SDS011;58360;0.000;0.000;2023-04-24T08:19:33;14.82;;;4.18;;
70761;SDS011;58360;0.000;0.000;2023-04-24T08:21:58;18.73;;;4.28;;
70761;SDS011;58360;0.000;0.000;2023-04-24T08:24:24;21.20;;;5.57;;
70761;SDS011;58360;0.000;0.000;2023-04-24T08:26:50;17.40;;;5.20;;
70761;SDS011;58360;0.000;0.000;2023-04-24T08:29:22;13.88;;;4.32;;
70761;SDS011;58360;0.000;0.000;2023-04-24T08:31:47;15.50;;;4.40;;
70761;SDS011;58360;0.000;0.000;2023-04-24T08:34:16;17.17;;;4.88;;
70761;SDS011;58360;0.000;0.000;2023-04-24T08:36:45;15.70;;;5.15;;
70761;SDS011;58360;0.000;0.000;2023-04-24T08:39:11;19.25;;;5.15;;
70761;SDS011;58360;0.000;0.000;2023-04-24T08:41:37;14.70;;;4.85;;
70761;SDS011;58360;0.000;0.000;2023-04-24T08:44:08;18.13;;;4.60;;
70761;SDS011;58360;0.000;0.000;2023-04-24T08:46:34;19.55;;;5.13;;
70761;SDS011;58360;0.000;0.000;2023-04-24T08:49:01;24.73;;;5.90;;
70761;SDS011;58360;0.000;0.000;2023-04-24T08:51:31;17.88;;;4.85;;
70761;SDS011;58360;0.000;0.000;2023-04-24T08:53:57;29.52;;;5.72;;
70761;SDS011;58360;0.000;0.000;2023-04-24T08:56:23;14.57;;;5.35;;
70761;SDS011;58360;0.000;0.000;2023-04-24T08:58:53;36.15;;;9.95;;
70761;SDS011;58360;0.000;0.000;2023-04-24T09:01:19;19.38;;;4.75;;
70761;SDS011;58360;0.000;0.000;2023-04-24T09:03:49;18.77;;;4.97;;
70761;SDS011;58360;0.000;0.000;2023-04-24T09:06:17;11.82;;;4.20;;
70761;SDS011;58360;0.000;0.000;2023-04-24T09:08:44;16.48;;;4.38;;
70761;SDS011;58360;0.000;0.000;2023-04-24T09:11:15;16.30;;;4.20;;
70761;SDS011;58360;0.000;0.000;2023-04-24T09:13:41;13.98;;;4.00;;
70761;SDS011;58360;0.000;0.000;2023-04-24T09:16:10;12.95;;;4.18;;
70761;SDS011;58360;0.000;0.000;2023-04-24T09:18:37;12.18;;;3.35;;
70761;SDS011;58360;0.000;0.000;2023-04-24T09:21:07;21.02;;;4.70;;
70761;SDS011;58360;0.000;0.000;2023-04-24T09:23:33;20.73;;;4.13;;
70761;SDS011;58360;0.000;0.000;2023-04-24T09:26:03;15.68;;;3.85;;
70761;SDS011;58360;0.000;0.000;2023-04-24T09:28:40;11.18;;;3.75;;
70761;SDS011;58360;0.000;0.000;2023-04-24T09:31:11;17.25;;;4.20;;
70761;SDS011;58360;0.000;0.000;2023-04-24T09:33:39;16.35;;;4.43;;
70761;SDS011;58360;0.000;0.000;2023-04-24T09:36:05;15.93;;;4.15;;
70761;SDS011;58360;0.000;0.000;2023-04-24T09:38:37;11.77;;;4.20;;
70761;SDS011;58360;0.000;0.000;2023-04-24T09:41:08;15.68;;;4.45;;
70761;SDS011;58360;0.000;0.000;2023-04-24T09:43:38;15.38;;;4.20;;
70761;SDS011;58360;0.000;0.000;2023-04-24T09:46:04;10.02;;;4.03;;
70761;SDS011;58360;0.000;0.000;2023-04-24T09:48:33;20.40;;;4.60;;
70761;SDS011;58360;0.000;0.000;2023-04-24T09:51:00;11.35;;;3.90;;
70761;SDS011;58360;0.000;0.000;2023-04-24T09:53:29;17.15;;;4.28;;
70761;SDS011;58360;0.000;0.000;2023-04-24T09:55:55;12.85;;;3.85;;
70761;SDS011;58360;0.000;0.000;2023-04-24T09:58:24;18.67;;;4.80;;
70761;SDS011;58360;0.000;0.000;2023-04-24T10:00:54;13.77;;;3.50;;
70761;SDS011;58360;0.000;0.000;2023-04-24T10:03:25;14.95;;;3.80;;
70761;SDS011;58360;0.000;0.000;2023-04-24T10:05:59;13.43;;;3.75;;
70761;SDS011;58360;0.000;0.000;2023-04-24T10:08:36;9.63;;;3.17;;
70761;SDS011;58360;0.000;0.000;2023-04-24T10:11:02;9.95;;;2.78;;
70761;SDS011;58360;0.000;0.000;2023-04-24T10:13:28;8.50;;;2.88;;
70761;SDS011;58360;0.000;0.000;2023-04-24T10:15:54;9.55;;;3.00;;
70761;SDS011;58360;0.000;0.000;2023-04-24T10:18:23;8.68;;;2.60;;
70761;SDS011;58360;0.000;0.000;2023-04-24T10:20:52;10.93;;;2.70;;
70761;SDS011;58360;0.000;0.000;2023-04-24T10:23:40;10.18;;;2.50;;
70761;SDS011;58360;0.000;0.000;2023-04-24T10:26:09;12.05;;;3.70;;
70761;SDS011;58360;0.000;0.000;2023-04-24T10:28:50;9.15;;;2.75;;
70761;SDS011;58360;0.000;0.000;2023-04-24T10:31:22;10.15;;;2.95;;
70761;SDS011;58360;0.000;0.000;2023-04-24T10:33:49;16.55;;;3.05;;
70761;SDS011;58360;0.000;0.000;2023-04-24T10:36:16;7.10;;;2.45;;
70761;SDS011;58360;0.000;0.000;2023-04-24T10:38:43;9.45;;;2.40;;
70761;SDS011;58360;0.000;0.000;2023-04-24T10:41:12;7.38;;;2.17;;
70761;SDS011;58360;0.000;0.000;2023-04-24T10:43:44;6.70;;;2.00;;
70761;SDS011;58360;0.000;0.000;2023-04-24T10:46:10;8.13;;;2.38;;
70761;SDS011;58360;0.000;0.000;2023-04-24T10:48:44;7.65;;;2.25;;
70761;SDS011;58360;0.000;0.000;2023-04-24T10:51:21;9.93;;;2.35;;
70761;SDS011;58360;0.000;0.000;2023-04-24T10:53:49;22.23;;;3.40;;
70761;SDS011;58360;0.000;0.000;2023-04-24T10:56:16;8.18;;;2.40;;
70761;SDS011;58360;0.000;0.000;2023-04-24T10:58:43;12.48;;;2.47;;
70761;SDS011;58360;0.000;0.000;2023-04-24T11:06:29;8.57;;;2.60;;
70761;SDS011;58360;0.000;0.000;2023-04-24T11:09:09;9.05;;;2.90;;
70761;SDS011;58360;0.000;0.000;2023-04-24T11:11:44;9.15;;;2.85;;
70761;SDS011;58360;0.000;0.000;2023-04-24T11:14:13;8.05;;;2.92;;
70761;SDS011;58360;0.000;0.000;2023-04-24T11:16:52;9.25;;;2.80;;
70761;SDS011;58360;0.000;0.000;2023-04-24T11:19:22;7.78;;;3.10;;
70761;SDS011;58360;0.000;0.000;2023-04-24T11:24:27;10.77;;;2.75;;
70761;SDS011;58360;0.000;0.000;2023-04-24T11:26:54;17.45;;;3.97;;
70761;SDS011;58360;0.000;0.000;2023-04-24T11:29:22;19.55;;;2.88;;
70761;SDS011;58360;0.000;0.000;2023-04-24T11:31:48;9.02;;;2.28;;
70761;SDS011;58360;0.000;0.000;2023-04-24T11:34:19;10.48;;;2.50;;
70761;SDS011;58360;0.000;0.000;2023-04-24T11:36:49;8.60;;;2.33;;
70761;SDS011;58360;0.000;0.000;2023-04-24T11:39:24;6.93;;;2.17;;
70761;SDS011;58360;0.000;0.000;2023-04-24T11:41:52;6.32;;;2.38;;
70761;SDS011;58360;0.000;0.000;2023-04-24T11:44:19;6.90;;;1.83;;
70761;SDS011;58360;0.000;0.000;2023-04-24T11:46:49;10.47;;;2.60;;
70761;SDS011;58360;0.000;0.000;2023-04-24T11:49:15;8.73;;;2.03;;
70761;SDS011;58360;0.000;0.000;2023-04-24T11:51:41;10.30;;;2.20;;
70761;SDS011;58360;0.000;0.000;2023-04-24T11:54:07;5.53;;;1.88;;
70761;SDS011;58360;0.000;0.000;2023-04-24T11:56:33;7.70;;;2.20;;
70761;SDS011;58360;0.000;0.000;2023-04-24T11:58:58;5.78;;;1.63;;
70761;SDS011;58360;0.000;0.000;2023-04-24T12:01:28;7.15;;;2.00;;
70761;SDS011;58360;0.000;0.000;2023-04-24T12:03:59;9.77;;;2.17;;
70761;SDS011;58360;0.000;0.000;2023-04-24T12:06:25;21.80;;;2.88;;
70761;SDS011;58360;0.000;0.000;2023-04-24T12:08:52;8.15;;;2.20;;
70761;SDS011;58360;0.000;0.000;2023-04-24T12:11:22;13.95;;;2.55;;
70761;SDS011;58360;0.000;0.000;2023-04-24T12:13:48;13.07;;;2.83;;
70761;SDS011;58360;0.000;0.000;2023-04-24T12:16:14;13.15;;;2.28;;
70761;SDS011;58360;0.000;0.000;2023-04-24T12:18:43;8.95;;;2.08;;
70761;SDS011;58360;0.000;0.000;2023-04-24T12:21:20;9.23;;;1.90;;
70761;SDS011;58360;0.000;0.000;2023-04-24T12:23:47;6.93;;;1.80;;
70761;SDS011;58360;0.000;0.000;2023-04-24T12:26:17;19.55;;;2.90;;
70761;SDS011;58360;0.000;0.000;2023-04-24T12:28:46;5.97;;;2.17;;
70761;SDS011;58360;0.000;0.000;2023-04-24T12:31:15;6.50;;;2.35;;
70761;SDS011;58360;0.000;0.000;2023-04-24T12:33:41;6.10;;;2.05;;
70761;SDS011;58360;0.000;0.000;2023-04-24T12:36:09;7.60;;;2.33;;
70761;SDS011;58360;0.000;0.000;2023-04-24T12:38:37;7.03;;;2.40;;
70761;SDS011;58360;0.000;0.000;2023-04-24T12:41:06;8.45;;;2.50;;
70761;SDS011;58360;0.000;0.000;2023-04-24T12:43:34;15.10;;;3.10;;
70761;SDS011;58360;0.000;0.000;2023-04-24T12:46:00;13.45;;;2.20;;
70761;SDS011;58360;0.000;0.000;2023-04-24T12:48:27;12.82;;;2.30;;
70761;SDS011;58360;0.000;0.000;2023-04-24T12:50:53;7.55;;;1.92;;
70761;SDS011;58360;0.000;0.000;2023-04-24T12:53:20;5.38;;;1.73;;
70761;SDS011;58360;0.000;0.000;2023-04-24T12:55:46;12.45;;;2.22;;
70761;SDS011;58360;0.000;0.000;2023-04-24T12:58:17;6.85;;;2.08;;
70761;SDS011;58360;0.000;0.000;2023-04-24T13:00:47;7.65;;;2.47;;
70761;SDS011;58360;0.000;0.000;2023-04-24T13:03:13;8.88;;;2.00;;
70761;SDS011;58360;0.000;0.000;2023-04-24T13:05:39;6.18;;;1.95;;
70761;SDS011;58360;0.000;0.000;2023-04-24T13:08:06;9.38;;;2.65;;
70761;SDS011;58360;0.000;0.000;2023-04-24T13:10:31;6.85;;;2.65;;
70761;SDS011;58360;0.000;0.000;2023-04-24T13:12:57;6.82;;;2.10;;
70761;SDS011;58360;0.000;0.000;2023-04-24T13:15:23;5.78;;;1.95;;
70761;SDS011;58360;0.000;0.000;2023-04-24T13:17:50;7.00;;;2.30;;
70761;SDS011;58360;0.000;0.000;2023-04-24T13:20:15;8.80;;;2.47;;
70761;SDS011;58360;0.000;0.000;2023-04-24T13:22:42;6.20;;;2.05;;
70761;SDS011;58360;0.000;0.000;2023-04-24T13:25:08;5.68;;;2.15;;
70761;SDS011;58360;0.000;0.000;2023-04-24T13:27:34;14.40;;;2.53;;
70761;SDS011;58360;0.000;0.000;2023-04-24T13:29:59;8.38;;;2.38;;
70761;SDS011;58360;0.000;0.000;2023-04-24T13:32:25;7.03;;;2.38;;
70761;SDS011;58360;0.000;0.000;2023-04-24T13:34:52;6.32;;;2.13;;
70761;SDS011;58360;0.000;0.000;2023-04-24T13:37:18;5.05;;;2.10;;
70761;SDS011;58360;0.000;0.000;2023-04-24T13:39:43;9.05;;;2.17;;
70761;SDS011;58360;0.000;0.000;2023-04-24T13:42:09;6.78;;;2.08;;
70761;SDS011;58360;0.000;0.000;2023-04-24T13:44:35;6.00;;;1.65;;
70761;SDS011;58360;0.000;0.000;2023-04-24T13:47:01;5.55;;;1.80;;
70761;SDS011;58360;0.000;0.000;2023-04-24T13:49:27;7.68;;;1.88;;
70761;SDS011;58360;0.000;0.000;2023-04-24T13:51:54;5.40;;;1.67;;
70761;SDS011;58360;0.000;0.000;2023-04-24T13:54:20;4.13;;;1.40;;
70761;SDS011;58360;0.000;0.000;2023-04-24T13:56:48;6.15;;;1.92;;
70761;SDS011;58360;0.000;0.000;2023-04-24T13:59:14;3.45;;;1.70;;
70761;SDS011;58360;0.000;0.000;2023-04-24T14:01:40;5.30;;;1.52;;
70761;SDS011;58360;0.000;0.000;2023-04-24T14:04:05;6.07;;;1.73;;
70761;SDS011;58360;0.000;0.000;2023-04-24T14:06:31;4.30;;;1.50;;
70761;SDS011;58360;0.000;0.000;2023-04-24T14:08:57;3.58;;;1.60;;
70761;SDS011;58360;0.000;0.000;2023-04-24T14:11:22;3.85;;;1.48;;
70761;SDS011;58360;0.000;0.000;2023-04-24T14:13:48;6.25;;;1.92;;
70761;SDS011;58360;0.000;0.000;2023-04-24T14:16:14;6.97;;;1.75;;
70761;SDS011;58360;0.000;0.000;2023-04-24T14:18:40;4.47;;;1.48;;
70761;SDS011;58360;0.000;0.000;2023-04-24T14:21:06;8.35;;;1.75;;
70761;SDS011;58360;0.000;0.000;2023-04-24T14:23:32;5.00;;;2.00;;
70761;SDS011;58360;0.000;0.000;2023-04-24T14:25:58;3.42;;;1.63;;
70761;SDS011;58360;0.000;0.000;2023-04-24T14:28:24;5.57;;;1.95;;
70761;SDS011;58360;0.000;0.000;2023-04-24T14:30:51;6.28;;;1.80;;
70761;SDS011;58360;0.000;0.000;2023-04-24T14:33:17;6.93;;;1.75;;
70761;SDS011;58360;0.000;0.000;2023-04-24T14:35:43;5.05;;;1.80;;
70761;SDS011;58360;0.000;0.000;2023-04-24T14:38:12;2.97;;;1.40;;
70761;SDS011;58360;0.000;0.000;2023-04-24T14:40:38;6.00;;;1.67;;
70761;SDS011;58360;0.000;0.000;2023-04-24T14:43:06;5.35;;;1.58;;
70761;SDS011;58360;0.000;0.000;2023-04-24T14:45:32;4.85;;;1.95;;
70761;SDS011;58360;0.000;0.000;2023-04-24T14:47:58;3.75;;;1.35;;
70761;SDS011;58360;0.000;0.000;2023-04-24T14:50:23;4.28;;;1.48;;
70761;SDS011;58360;0.000;0.000;2023-04-24T14:52:53;3.78;;;1.70;;